Latest Coastal Weather Observations for Cocos Island

IDW60701

Issued at 5:22 pm WST Saturday 2 July 2016 (issued every 10 minutes, with the page automatically refreshed every 10 minutes)

About coastal observations | Map of coastal stations | Coastal observations for WA | Marine services | Other Formats
Station Details ID: 200284 Name: COCOS ISLAND AIRPORT Lat: -12.19 Lon: 96.83 Height: 3.0 m
Data from the previous 72 hours. | See also: Recent months at Cocos Island
Date/Time
WST
Temp
°C
Wind Pressure Rain since
9am
mm
Weather Cloud Vis
km
Sea
Height
m
Swell
Dir  Spd
kts
Gust
kts
hPa Trend Height
m
Period
s
Dir
02/05:00pm 28.4 ESE 16 20 1012.3 - 0.0 - Mostly cloudy 10 - - - -
02/04:30pm 28.6 ESE 15 21 1012.4 - 0.0 - Partly cloudy 10 - - - -
02/04:18pm 28.7 ESE 15 25 1012.4 - 0.0 - Partly cloudy 10 - - - -
02/04:00pm 28.6 ESE 15 21 1012.5 - 0.0 - Partly cloudy 10 - - - -
02/03:30pm 29.0 ESE 16 22 1012.7 - 0.0 - Partly cloudy 10 - - - -
02/03:00pm 28.9 ESE 15 21 1012.9 - 0.0 - Partly cloudy 10 - - - -
02/02:30pm 29.4 ESE 14 21 1013.1 - 0.0 - Partly cloudy 10 - - - -
02/02:00pm 29.0 ESE 16 22 1013.1 - 0.0 - Mostly cloudy 10 - - - -
02/01:30pm 29.1 ESE 13 19 1013.5 - 0.0 - Partly cloudy 10 - - - -
02/01:00pm 29.0 ESE 13 20 1013.8 - 0.0 - Partly cloudy 10 - - - -
02/12:30pm 28.5 ESE 15 21 1014.2 - 0.0 - Partly cloudy - - - - -
02/12:00pm 28.1 ESE 15 21 1014.4 - 0.0 - Partly cloudy - - - - -
02/11:30am 28.2 ESE 12 17 1014.5 - 0.0 - Partly cloudy - - - - -
02/11:00am 28.2 ESE 15 19 1014.2 - 0.6 - Mostly cloudy - - - - -
02/10:30am 27.6 ESE 15 22 1014.4 - 0.6 - Partly cloudy - - - - -
02/10:00am 27.4 E 14 20 1014.2 - 0.6 - Partly cloudy - - - - -
02/09:30am 27.3 ESE 15 21 1013.8 - 0.6 - Partly cloudy - - - - -
02/09:00am 27.3 ESE 15 21 1013.3 - 0.6 - Partly cloudy - - - - -
02/08:30am 27.0 E 17 25 1012.8 - 0.6 - Partly cloudy - - - - -
02/08:00am 27.3 ESE 20 26 1012.2 - 0.6 - Cloudy - - - - -
02/07:30am 27.1 ESE 17 23 1012.0 - 0.6 - Partly cloudy - - - - -
02/07:04am 27.2 ESE 17 27 1011.7 - 0.6 - Partly cloudy - - - - -
02/07:00am 27.2 ESE 15 21 1011.6 - 0.6 - Partly cloudy - - - - -
02/06:30am 27.0 ESE 15 19 1011.7 - 0.6 - Partly cloudy - - - - -
02/06:00am 27.3 ESE 16 24 1011.6 - 0.6 - Partly cloudy - - - - -
02/05:30am 27.3 ESE 16 23 1011.4 - 0.6 - Partly cloudy - - - - -
02/05:00am 27.0 ESE 16 23 1011.4 - 0.6 - Mostly cloudy - - - - -
02/04:39am 27.0 ESE 16 26 1011.5 - 0.6 - Partly cloudy - - - - -
02/04:30am 26.9 ESE 17 23 1011.6 - 0.6 - Partly cloudy - - - - -
02/04:00am 27.1 ESE 15 21 1011.9 - 0.6 - Partly cloudy - - - - -
02/03:30am 27.3 ESE 17 22 1012.1 - 0.6 - Partly cloudy - - - - -
02/03:00am 27.3 ESE 15 24 1012.3 - 0.6 - Partly cloudy - - - - -
02/02:30am 27.1 SE 16 20 1012.5 - 0.6 - Partly cloudy - - - - -
02/02:00am 27.0 ESE 15 20 1012.8 - 0.6 - Cloudy - - - - -
02/01:30am 27.3 ESE 13 20 1013.2 - 0.6 - Partly cloudy - - - - -
02/01:00am 27.3 ESE 13 20 1013.4 - 0.6 - Partly cloudy - - - - -
02/12:30am 27.3 E 14 20 1013.7 - 0.6 - Partly cloudy - - - - -
02/12:00am 27.3 E 13 18 1014.0 - 0.6 - Partly cloudy - - - - -
 
Date/Time
WST
Temp
°C
Wind Pressure Rain since
9am
mm
Weather Cloud Vis
km
Sea
Height
m
Swell
Dir  Spd
kts
Gust
kts
hPa Trend Height
m
Period
s
Dir
01/11:30pm 27.3 E 14 17 1014.1 - 0.6 - - - - - - -
01/11:00pm 27.4 E 14 19 1013.9 - 0.6 - Mostly clear - - - - -
01/10:30pm 27.4 ESE 14 19 1013.7 - 0.6 - Partly cloudy - - - - -
01/10:00pm 27.2 ESE 14 20 1013.6 - 0.6 - Partly cloudy - - - - -
01/09:30pm 27.2 ESE 14 20 1013.3 - 0.6 - Partly cloudy - - - - -
01/09:00pm 27.3 ESE 17 22 1012.9 - 0.6 - Partly cloudy - - - - -
01/08:30pm 26.5 SE 13 17 1012.6 - 0.6 - Partly cloudy 10 - - - -
01/08:22pm 26.0 SE 13 17 1012.5 - 0.6 - Partly cloudy 10 - - - -
01/08:10pm 26.2 ESE 12 16 1012.4 - 0.6 - Partly cloudy 6 - - - -
01/08:00pm 26.5 ESE 14 19 1012.2 - 0.6 - Cloudy - - - - -
01/07:30pm 27.7 ESE 14 20 1011.9 - 0.6 - Partly cloudy - - - - -
01/07:00pm 27.4 SE 13 18 1011.7 - 0.6 - Partly cloudy 10 - - - -
01/06:30pm 27.3 E 16 24 1011.4 - 0.6 - Partly cloudy 10 - - - -
01/06:00pm 27.6 ESE 14 19 1011.0 - 0.6 - Partly cloudy 10 - - - -
01/05:30pm 28.1 ESE 15 20 1010.7 - 0.6 - Partly cloudy 10 - - - -
01/05:00pm 28.3 ESE 14 21 1010.6 - 0.6 - Cloudy 10 - - - -
01/04:30pm 28.4 ESE 15 21 1010.7 - 0.6 - Partly cloudy 10 - - - -
01/04:00pm 28.7 ESE 15 21 1010.7 - 0.6 - Partly cloudy 10 - - - -
01/03:30pm 28.9 ESE 16 22 1010.7 - 0.6 - Partly cloudy 10 - - - -
01/03:00pm 28.5 ESE 15 20 1011.0 - 0.6 - Partly cloudy 10 - - - -
01/02:30pm 28.6 ESE 16 22 1011.4 - 0.6 - Partly cloudy 10 - - - -
01/02:00pm 28.6 ESE 16 23 1011.7 - 0.4 - Mostly clear 10 - - - -
01/01:30pm 28.9 ESE 16 23 1012.1 - 0.4 - Mostly clear 10 - - - -
01/01:00pm 28.3 ESE 17 24 1012.4 - 0.0 - Mostly clear 10 - - - -
01/12:30pm 28.2 ESE 17 24 1012.6 - 0.0 - Mostly clear 10 - - - -
01/12:00pm 28.1 ESE 18 25 1013.0 - 0.0 - Mostly clear 10 - - - -
01/11:30am 28.0 ESE 16 23 1012.9 - 0.0 - Mostly clear 10 - - - -
01/11:00am 27.6 ESE 17 25 1012.7 - 0.0 - Mostly clear 10 - - - -
01/10:46am 28.0 ESE 18 28 1012.8 - 0.0 - Mostly clear 10 - - - -
01/10:30am 28.0 ESE 16 22 1012.9 - 0.0 - Mostly clear 10 - - - -
01/10:00am 27.4 ESE 17 23 1012.9 - 0.0 - Mostly clear 10 - - - -
01/09:30am 27.4 ESE 17 24 1012.7 - 0.0 - Mostly clear 10 - - - -
01/09:00am 27.3 ESE 15 21 1012.6 - 0.0 - Mostly clear 10 - - - -
01/08:30am 27.2 ESE 15 20 1012.4 - 0.0 - Mostly clear 10 - - - -
01/08:00am 27.2 ESE 15 20 1012.0 - 0.0 - Partly cloudy 10 - - - -
01/07:30am 27.2 ESE 15 21 1012.0 - 0.0 - Partly cloudy 10 - - - -
01/07:00am 27.3 ESE 16 23 1011.9 - 0.0 - Partly cloudy 10 - - - -
01/06:30am 27.3 ESE 15 21 1011.7 - 0.0 - Partly cloudy 10 - - - -
01/06:00am 27.3 ESE 15 20 1011.6 - 0.0 - Partly cloudy 10 - - - -
01/05:30am 27.4 ESE 16 22 1011.3 - 0.0 - Partly cloudy 10 - - - -
01/05:00am 27.4 ESE 17 22 1011.2 - 0.0 - Cloudy 10 - - - -
01/04:30am 27.4 ESE 17 22 1011.3 - 0.0 - Partly cloudy 10 - - - -
01/04:00am 27.5 ESE 15 21 1011.6 - 0.0 - Partly cloudy 10 - - - -
01/03:30am 27.5 ESE 16 21 1011.9 - 0.0 - Partly cloudy 10 - - - -
01/03:24am 27.4 ESE 15 21 1012.0 - 0.0 - Partly cloudy 10 - - - -
01/03:00am 27.4 ESE 14 20 1012.2 - 0.0 - Partly cloudy 10 - - - -
01/02:49am 27.4 ESE 13 19 1012.3 - 0.0 - Partly cloudy 4 - - - -
01/02:30am 27.5 ESE 14 20 1012.5 - 0.0 - Partly cloudy 10 - - - -
01/02:00am 27.5 ESE 15 21 1012.5 - 0.0 - Mostly cloudy 10 - - - -
01/01:30am 27.5 ESE 13 18 1013.0 - 0.0 - Partly cloudy 10 - - - -
01/01:00am 27.5 ESE 13 19 1013.0 - 0.0 - Partly cloudy 10 - - - -
01/12:30am 27.5 ESE 12 17 1013.3 - 0.0 - Partly cloudy 10 - - - -
01/12:00am 27.3 ESE 13 19 1013.4 - 0.0 - Partly cloudy 10 - - - -
 
Date/Time
WST
Temp
°C
Wind Pressure Rain since
9am
mm
Weather Cloud Vis
km
Sea
Height
m
Swell
Dir  Spd
kts
Gust
kts
hPa Trend Height
m
Period
s
Dir
30/11:41pm 27.2 E 13 19 1013.3 - 0.0 - Partly cloudy 10 - - - -
30/11:30pm 27.3 ESE 15 21 1013.4 - 0.0 - - 6 - - - -
30/11:27pm 27.3 ESE 14 20 1013.4 - 0.0 - - 5 - - - -
30/11:00pm 27.4 E 14 19 1013.4 - 0.0 - Cloudy 10 - - - -
30/10:30pm 27.3 E 16 21 1013.6 - 0.0 - Partly cloudy 10 - - - -
30/10:00pm 27.3 E 15 22 1013.5 - 0.0 - Partly cloudy 10 - - - -
30/09:30pm 27.4 E 14 19 1013.1 - 0.0 - Partly cloudy 10 - - - -
30/09:00pm 27.5 E 15 21 1012.9 - 0.0 - Partly cloudy 10 - - - -
30/08:30pm 27.6 ESE 13 19 1012.6 - 0.0 - Partly cloudy 10 - - - -
30/08:00pm 27.7 ESE 15 20 1012.3 - 0.0 - Mostly clear 10 - - - -
30/07:30pm 27.9 ESE 15 21 1012.0 - 0.0 - Partly cloudy 10 - - - -
30/07:00pm 28.0 E 15 21 1011.7 - 0.0 - Partly cloudy 10 - - - -
30/06:30pm 28.2 ESE 13 17 1011.4 - 0.0 - Partly cloudy 10 - - - -
30/06:00pm 28.5 ESE 15 21 1011.1 - 0.0 - Partly cloudy 10 - - - -
30/05:30pm 29.0 E 15 20 1011.0 - 0.0 - Partly cloudy 10 - - - -
30/05:00pm 29.4 E 14 23 1010.8 - 0.0 - Cloudy 10 - - - -
30/04:30pm 29.0 E 15 21 1010.8 - 0.0 - Partly cloudy 10 - - - -
30/04:00pm 28.9 E 15 21 1011.1 - 0.0 - Partly cloudy 10 - - - -
30/03:30pm 28.9 E 15 20 1011.2 - 0.0 - Partly cloudy 10 - - - -
30/03:00pm 29.0 ESE 15 21 1011.6 - 0.0 - Mostly clear 10 - - - -
30/02:30pm 29.4 E 14 19 1012.1 - 0.0 - Partly cloudy 10 - - - -
30/02:00pm 28.2 E 16 23 1012.5 - 0.0 - Cloudy 10 - - - -
30/01:30pm 29.6 E 12 17 1012.9 - 0.0 - Partly cloudy 10 - - - -
30/01:00pm 29.3 ESE 14 20 1013.2 - 0.0 - Partly cloudy 10 - - - -
30/12:30pm 29.6 E 13 19 1013.4 - 0.0 - Partly cloudy 10 - - - -
30/12:00pm 29.0 ESE 14 18 1013.7 - 0.0 - Mostly clear 10 - - - -
30/11:30am 29.2 E 13 19 1013.8 - 0.0 - Mostly clear 10 - - - -
30/11:00am 28.8 E 13 17 1013.8 - 0.0 - Mostly clear 10 - - - -
30/10:30am 28.3 E 11 16 1014.1 - 0.0 - Mostly clear 10 - - - -
30/10:00am 27.6 ESE 14 21 1014.0 - 0.0 - Mostly clear 10 - - - -
30/09:30am 27.7 ESE 14 18 1013.8 - 0.0 - Mostly clear 10 - - - -
30/09:00am 27.6 ESE 14 18 1013.4 - 0.0 - Mostly clear 10 - - - -
30/08:30am 27.4 ESE 13 18 1013.0 - 0.0 - Mostly clear 10 - - - -
30/08:00am 27.1 ESE 13 20 1012.4 - 0.0 - Mostly clear - - - - -
30/07:30am 27.1 ESE 13 17 1012.3 - 0.0 - Partly cloudy - - - - -
30/07:00am 27.1 ESE 11 16 1012.3 - 0.0 - Partly cloudy - - - - -
30/06:30am 27.0 ESE 13 16 1012.3 - 0.0 - Partly cloudy - - - - -
30/06:00am 26.2 SSE 9 13 1012.3 - 0.0 - - 10 - - - -
30/05:30am 26.1 SSE 12 18 1012.3 - 0.0 - - 10 - - - -
30/05:00am 26.8 ESE 13 18 1012.2 - 0.0 - Mostly clear 10 - - - -
30/04:30am 27.0 SE 13 17 1012.3 - 0.0 - Partly cloudy 10 - - - -
30/04:00am 27.2 ESE 13 17 1012.6 - 0.0 - Partly cloudy 10 - - - -
30/03:30am 27.3 ESE 15 18 1012.8 - 0.0 - Partly cloudy 10 - - - -
30/03:00am 27.3 ESE 13 17 1013.1 - 0.0 - Partly cloudy 10 - - - -
30/02:30am 27.3 ESE 15 19 1013.5 - 0.0 - Partly cloudy 10 - - - -
30/02:00am 27.3 SE 13 16 1013.7 - 0.0 - Mostly clear 10 - - - -
30/01:30am 27.3 ESE 14 21 1014.0 - 0.0 - - 10 - - - -
30/01:00am 27.2 ESE 13 20 1014.3 - 0.0 - Partly cloudy 10 - - - -
30/12:30am 27.3 ESE 15 19 1014.5 - 0.0 - - - - - - -
30/12:26am 27.3 ESE 14 19 1014.4 - 0.0 - - - - - - -
30/12:16am 27.3 ESE 15 18 1014.5 - 0.0 - Partly cloudy 0 - - - -
30/12:00am 27.4 ESE 16 20 1014.5 - 0.0 - Partly cloudy 10 - - - -
 
Date/Time
WST
Temp
°C
Wind Pressure Rain since
9am
mm
Weather Cloud Vis
km
Sea
Height
m
Swell
Dir  Spd
kts
Gust
kts
hPa Trend Height
m
Period
s
Dir
29/11:30pm 27.4 SE 16 19 1014.5 - 0.0 - - 10 - - - -
29/11:00pm 27.3 SE 16 20 1014.4 - 0.0 - Mostly clear 10 - - - -
29/10:30pm 27.3 SE 15 18 1014.3 - 0.0 - Partly cloudy 10 - - - -
29/10:00pm 27.3 ESE 14 18 1014.2 - 0.0 - Partly cloudy 10 - - - -
29/09:30pm 27.3 ESE 13 17 1014.1 - 0.0 - Partly cloudy 10 - - - -
29/09:00pm 27.5 ESE 14 17 1013.9 - 0.0 - Partly cloudy 10 - - - -
29/08:30pm 27.5 ESE 12 16 1013.6 - 0.0 - Partly cloudy 10 - - - -
29/08:00pm 27.5 ESE 13 18 1013.0 - 0.0 - Mostly clear 10 - - - -
29/07:30pm 27.6 ESE 13 17 1012.6 - 0.0 - Partly cloudy 10 - - - -
29/07:00pm 27.8 ESE 15 19 1012.2 - 0.0 - Partly cloudy 10 - - - -

Other Formats:

Comma delimited format used in spreadsheet applications
http://www.bom.gov.au/fwo/IDW60701/IDW60701.96996.axf

JavaScript Object Notation format (JSON) in row-major order
http://www.bom.gov.au/fwo/IDW60701/IDW60701.96996.json